sensor_id;sensor_type;location;lat;lon;timestamp;temperature;humidity
9095;DHT22;4583;49.796;9.902;2022-10-16T00:00:12;17.50;99.90
9095;DHT22;4583;49.796;9.902;2022-10-16T00:10:14;17.50;99.90
9095;DHT22;4583;49.796;9.902;2022-10-16T00:20:16;17.50;99.90
9095;DHT22;4583;49.796;9.902;2022-10-16T00:30:18;17.50;99.90
9095;DHT22;4583;49.796;9.902;2022-10-16T00:40:19;17.50;99.90
9095;DHT22;4583;49.796;9.902;2022-10-16T01:00:26;17.40;99.90
9095;DHT22;4583;49.796;9.902;2022-10-16T01:11:01;17.40;99.90
9095;DHT22;4583;49.796;9.902;2022-10-16T01:21:18;17.30;99.90
9095;DHT22;4583;49.796;9.902;2022-10-16T01:31:27;17.20;99.90
9095;DHT22;4583;49.796;9.902;2022-10-16T01:41:34;17.20;99.90
9095;DHT22;4583;49.796;9.902;2022-10-16T01:51:38;17.20;99.90
9095;DHT22;4583;49.796;9.902;2022-10-16T02:01:45;17.10;99.90
9095;DHT22;4583;49.796;9.902;2022-10-16T02:11:50;17.10;99.90
9095;DHT22;4583;49.796;9.902;2022-10-16T02:22:00;17.10;99.90
9095;DHT22;4583;49.796;9.902;2022-10-16T02:32:06;17.10;99.90
9095;DHT22;4583;49.796;9.902;2022-10-16T02:42:13;17.10;99.90
9095;DHT22;4583;49.796;9.902;2022-10-16T02:52:15;17.10;99.90
9095;DHT22;4583;49.796;9.902;2022-10-16T03:02:17;17.10;99.90
9095;DHT22;4583;49.796;9.902;2022-10-16T03:12:19;17.10;99.90
9095;DHT22;4583;49.796;9.902;2022-10-16T03:22:20;17.10;99.90
9095;DHT22;4583;49.796;9.902;2022-10-16T03:32:22;17.00;99.90
9095;DHT22;4583;49.796;9.902;2022-10-16T03:42:26;17.00;99.90
9095;DHT22;4583;49.796;9.902;2022-10-16T03:52:28;17.00;99.90
9095;DHT22;4583;49.796;9.902;2022-10-16T04:02:29;17.00;99.90
9095;DHT22;4583;49.796;9.902;2022-10-16T04:12:31;16.90;99.90
9095;DHT22;4583;49.796;9.902;2022-10-16T04:22:33;16.80;99.90
9095;DHT22;4583;49.796;9.902;2022-10-16T04:32:35;16.80;99.90
9095;DHT22;4583;49.796;9.902;2022-10-16T04:42:36;16.80;99.90
9095;DHT22;4583;49.796;9.902;2022-10-16T04:52:38;16.90;99.90
9095;DHT22;4583;49.796;9.902;2022-10-16T05:02:40;16.80;99.90
9095;DHT22;4583;49.796;9.902;2022-10-16T05:12:42;16.80;99.90
9095;DHT22;4583;49.796;9.902;2022-10-16T05:22:43;16.80;99.90
9095;DHT22;4583;49.796;9.902;2022-10-16T05:32:49;16.80;99.90
9095;DHT22;4583;49.796;9.902;2022-10-16T05:42:55;16.80;99.90
9095;DHT22;4583;49.796;9.902;2022-10-16T05:52:56;16.70;99.90
9095;DHT22;4583;49.796;9.902;2022-10-16T06:02:58;16.80;99.90
9095;DHT22;4583;49.796;9.902;2022-10-16T06:13:00;16.70;99.90
9095;DHT22;4583;49.796;9.902;2022-10-16T06:23:02;16.80;99.90
9095;DHT22;4583;49.796;9.902;2022-10-16T06:33:05;16.80;99.90
9095;DHT22;4583;49.796;9.902;2022-10-16T06:43:07;16.80;99.90
9095;DHT22;4583;49.796;9.902;2022-10-16T06:53:08;16.80;99.90
9095;DHT22;4583;49.796;9.902;2022-10-16T07:03:10;16.80;99.90
9095;DHT22;4583;49.796;9.902;2022-10-16T07:13:12;16.80;99.90
9095;DHT22;4583;49.796;9.902;2022-10-16T07:23:16;16.80;99.90
9095;DHT22;4583;49.796;9.902;2022-10-16T07:33:18;16.90;99.90
9095;DHT22;4583;49.796;9.902;2022-10-16T07:43:20;16.90;99.90
9095;DHT22;4583;49.796;9.902;2022-10-16T07:53:22;17.40;99.90
9095;DHT22;4583;49.796;9.902;2022-10-16T08:03:27;17.30;99.90
9095;DHT22;4583;49.796;9.902;2022-10-16T08:13:29;17.30;99.90
9095;DHT22;4583;49.796;9.902;2022-10-16T08:23:32;17.30;99.90
9095;DHT22;4583;49.796;9.902;2022-10-16T08:33:36;17.40;99.90
9095;DHT22;4583;49.796;9.902;2022-10-16T08:43:52;17.50;99.90
9095;DHT22;4583;49.796;9.902;2022-10-16T08:54:06;17.60;99.90
9095;DHT22;4583;49.796;9.902;2022-10-16T09:15:35;18.10;99.90
9095;DHT22;4583;49.796;9.902;2022-10-16T09:25:49;18.20;99.90
9095;DHT22;4583;49.796;9.902;2022-10-16T09:35:53;18.50;99.90
9095;DHT22;4583;49.796;9.902;2022-10-16T09:46:04;18.40;99.90
9095;DHT22;4583;49.796;9.902;2022-10-16T09:56:06;18.80;99.90
9095;DHT22;4583;49.796;9.902;2022-10-16T10:06:28;18.50;99.90
9095;DHT22;4583;49.796;9.902;2022-10-16T10:16:30;18.50;99.90
9095;DHT22;4583;49.796;9.902;2022-10-16T10:26:32;18.40;99.90
9095;DHT22;4583;49.796;9.902;2022-10-16T10:36:41;18.30;99.90
9095;DHT22;4583;49.796;9.902;2022-10-16T10:46:56;18.20;99.90
9095;DHT22;4583;49.796;9.902;2022-10-16T11:07:28;18.50;99.90
9095;DHT22;4583;49.796;9.902;2022-10-16T11:17:39;18.80;99.90
9095;DHT22;4583;49.796;9.902;2022-10-16T11:28:09;19.10;99.90
9095;DHT22;4583;49.796;9.902;2022-10-16T11:48:31;19.60;99.90
9095;DHT22;4583;49.796;9.902;2022-10-16T12:08:54;20.30;99.90
9095;DHT22;4583;49.796;9.902;2022-10-16T12:19:16;20.60;99.90
9095;DHT22;4583;49.796;9.902;2022-10-16T12:29:23;20.80;99.90
9095;DHT22;4583;49.796;9.902;2022-10-16T12:39:29;21.10;99.90
9095;DHT22;4583;49.796;9.902;2022-10-16T12:49:36;21.30;99.90
9095;DHT22;4583;49.796;9.902;2022-10-16T13:00:06;21.30;99.90
9095;DHT22;4583;49.796;9.902;2022-10-16T13:10:36;21.30;99.90
9095;DHT22;4583;49.796;9.902;2022-10-16T13:20:56;21.20;99.90
9095;DHT22;4583;49.796;9.902;2022-10-16T13:31:02;21.10;99.90
9095;DHT22;4583;49.796;9.902;2022-10-16T13:41:06;20.90;99.90
9095;DHT22;4583;49.796;9.902;2022-10-16T13:51:16;20.90;99.90
9095;DHT22;4583;49.796;9.902;2022-10-16T14:01:20;20.80;99.90
9095;DHT22;4583;49.796;9.902;2022-10-16T14:11:29;20.80;99.90
9095;DHT22;4583;49.796;9.902;2022-10-16T14:21:31;20.80;99.90
9095;DHT22;4583;49.796;9.902;2022-10-16T14:31:33;20.90;99.90
9095;DHT22;4583;49.796;9.902;2022-10-16T14:41:50;21.00;99.90
9095;DHT22;4583;49.796;9.902;2022-10-16T14:51:52;20.90;99.90
9095;DHT22;4583;49.796;9.902;2022-10-16T15:01:54;20.80;99.90
9095;DHT22;4583;49.796;9.902;2022-10-16T15:11:55;20.80;99.90
9095;DHT22;4583;49.796;9.902;2022-10-16T15:21:57;20.60;99.90
9095;DHT22;4583;49.796;9.902;2022-10-16T15:31:59;20.50;99.90
9095;DHT22;4583;49.796;9.902;2022-10-16T15:42:00;20.40;99.90
9095;DHT22;4583;49.796;9.902;2022-10-16T15:52:03;20.20;99.90
9095;DHT22;4583;49.796;9.902;2022-10-16T16:02:05;20.10;99.90
9095;DHT22;4583;49.796;9.902;2022-10-16T16:12:07;20.00;99.90
9095;DHT22;4583;49.796;9.902;2022-10-16T16:22:08;19.90;99.90
9095;DHT22;4583;49.796;9.902;2022-10-16T16:32:13;19.80;99.90
9095;DHT22;4583;49.796;9.902;2022-10-16T16:42:15;19.70;99.90
9095;DHT22;4583;49.796;9.902;2022-10-16T16:52:17;19.60;99.90
9095;DHT22;4583;49.796;9.902;2022-10-16T17:02:19;19.40;99.90
9095;DHT22;4583;49.796;9.902;2022-10-16T17:12:21;19.30;99.90
9095;DHT22;4583;49.796;9.902;2022-10-16T17:22:23;19.10;99.90
9095;DHT22;4583;49.796;9.902;2022-10-16T17:32:26;19.00;99.90
9095;DHT22;4583;49.796;9.902;2022-10-16T17:42:28;18.80;99.90
9095;DHT22;4583;49.796;9.902;2022-10-16T17:52:30;18.60;99.90
9095;DHT22;4583;49.796;9.902;2022-10-16T18:02:32;18.40;99.90
9095;DHT22;4583;49.796;9.902;2022-10-16T18:12:34;18.20;99.90
9095;DHT22;4583;49.796;9.902;2022-10-16T18:22:36;18.10;99.90
9095;DHT22;4583;49.796;9.902;2022-10-16T18:32:38;17.90;99.90
9095;DHT22;4583;49.796;9.902;2022-10-16T18:42:39;17.70;99.90
9095;DHT22;4583;49.796;9.902;2022-10-16T18:52:46;17.50;99.90
9095;DHT22;4583;49.796;9.902;2022-10-16T19:02:49;17.50;99.90
9095;DHT22;4583;49.796;9.902;2022-10-16T19:12:50;17.20;99.90
9095;DHT22;4583;49.796;9.902;2022-10-16T19:22:52;17.20;99.90
9095;DHT22;4583;49.796;9.902;2022-10-16T19:32:57;17.10;99.90
9095;DHT22;4583;49.796;9.902;2022-10-16T19:42:58;17.10;99.90
9095;DHT22;4583;49.796;9.902;2022-10-16T19:53:00;16.90;99.90
9095;DHT22;4583;49.796;9.902;2022-10-16T20:03:02;16.90;99.90
9095;DHT22;4583;49.796;9.902;2022-10-16T20:13:04;16.80;99.90
9095;DHT22;4583;49.796;9.902;2022-10-16T20:23:06;16.70;99.90
9095;DHT22;4583;49.796;9.902;2022-10-16T20:33:08;16.60;99.90
9095;DHT22;4583;49.796;9.902;2022-10-16T20:43:16;16.60;99.90
9095;DHT22;4583;49.796;9.902;2022-10-16T20:53:18;16.40;99.90
9095;DHT22;4583;49.796;9.902;2022-10-16T21:03:19;16.40;99.90
9095;DHT22;4583;49.796;9.902;2022-10-16T21:13:21;16.30;99.90
9095;DHT22;4583;49.796;9.902;2022-10-16T21:23:27;16.20;99.90
9095;DHT22;4583;49.796;9.902;2022-10-16T21:33:29;16.10;99.90
9095;DHT22;4583;49.796;9.902;2022-10-16T21:43:32;16.00;99.90
9095;DHT22;4583;49.796;9.902;2022-10-16T21:53:33;16.10;99.90
9095;DHT22;4583;49.796;9.902;2022-10-16T22:03:35;16.00;99.90
9095;DHT22;4583;49.796;9.902;2022-10-16T22:13:37;15.90;99.90
9095;DHT22;4583;49.796;9.902;2022-10-16T22:23:39;15.70;99.90
9095;DHT22;4583;49.796;9.902;2022-10-16T22:33:42;15.70;99.90
9095;DHT22;4583;49.796;9.902;2022-10-16T22:43:45;15.70;99.90
9095;DHT22;4583;49.796;9.902;2022-10-16T22:53:48;15.70;99.90
9095;DHT22;4583;49.796;9.902;2022-10-16T23:03:50;15.60;99.90
9095;DHT22;4583;49.796;9.902;2022-10-16T23:13:52;15.60;99.90
9095;DHT22;4583;49.796;9.902;2022-10-16T23:23:54;15.50;99.90
9095;DHT22;4583;49.796;9.902;2022-10-16T23:33:56;15.50;99.90
9095;DHT22;4583;49.796;9.902;2022-10-16T23:43:58;15.40;99.90
9095;DHT22;4583;49.796;9.902;2022-10-16T23:53:59;15.50;99.90
